Aviation Digital Data Service (ADDS)

Output produced by METARs form (0526 UTC 17 August 2018)
found at http://aviationweather.gov/adds/metars/
 
KBPT 170520Z 1706/1806 VRB03KT P6SM SCT250 
     FM171400 23006KT P6SM VCSH SCT025 SCT250 
     FM171700 22008KT P6SM VCTS SCT040CB SCT250 
     FM180100 VRB03KT P6SM SCT250